createdAt,value
2022-12-13T00:00:10.646Z,37.75
2022-12-13T00:01:21.017Z,35.27
2022-12-13T00:02:27.127Z,30.54
2022-12-13T00:03:31.138Z,29.31
2022-12-13T00:04:37.335Z,29.04
2022-12-13T00:05:46.463Z,30.29
2022-12-13T00:06:55.350Z,26.49
2022-12-13T00:07:59.588Z,26.37
2022-12-13T00:09:07.347Z,26.17
2022-12-13T00:10:14.138Z,27.70
2022-12-13T00:11:18.013Z,25.32
2022-12-13T00:12:25.239Z,23.95
2022-12-13T00:13:29.293Z,22.30
2022-12-13T00:14:35.539Z,23.46
2022-12-13T00:15:40.087Z,21.57
2022-12-13T00:16:49.763Z,20.55
2022-12-13T00:17:53.970Z,22.04
2022-12-13T00:19:02.989Z,22.45
2022-12-13T00:20:07.603Z,21.80
2022-12-13T00:21:21.150Z,21.77
2022-12-13T00:22:25.463Z,21.33
2022-12-13T00:23:32.458Z,21.00
2022-12-13T00:24:44.381Z,17.20
2022-12-13T00:25:49.511Z,17.42
2022-12-13T00:26:59.169Z,18.29
2022-12-13T00:28:02.487Z,20.46
2022-12-13T00:29:11.594Z,22.40
2022-12-13T00:30:15.151Z,22.85
2022-12-13T00:32:49.532Z,21.15
2022-12-13T00:33:53.647Z,20.60
2022-12-13T00:35:00.550Z,19.50
2022-12-13T00:36:07.862Z,19.01
2022-12-13T00:37:16.449Z,18.14
2022-12-13T00:38:20.137Z,18.57
2022-12-13T00:39:26.374Z,18.88
2022-12-13T00:40:33.176Z,19.11
2022-12-13T00:41:37.525Z,18.80
2022-12-13T00:42:43.499Z,17.45
2022-12-13T00:43:47.973Z,15.62
2022-12-13T00:44:53.975Z,16.12
2022-12-13T00:45:58.310Z,16.01
2022-12-13T00:47:04.290Z,15.91
2022-12-13T00:48:07.786Z,15.38
2022-12-13T00:49:16.132Z,15.80
2022-12-13T00:50:22.532Z,14.32
2022-12-13T00:51:29.126Z,14.35
2022-12-13T00:52:38.224Z,15.83
2022-12-13T00:53:41.954Z,15.66
2022-12-13T00:54:47.909Z,17.04
2022-12-13T00:55:51.278Z,16.86
2022-12-13T00:56:58.210Z,16.82
2022-12-13T00:58:01.500Z,16.58
2022-12-13T00:59:08.563Z,15.62
2022-12-13T01:00:15.794Z,15.69
2022-12-13T01:01:24.782Z,16.18
2022-12-13T01:02:31.567Z,16.50
2022-12-13T01:03:35.343Z,15.88
2022-12-13T01:04:41.373Z,15.57
2022-12-13T01:06:13.649Z,15.11
2022-12-13T01:07:10.576Z,15.32
2022-12-13T01:08:17.391Z,16.21
2022-12-13T01:09:30.095Z,14.76
2022-12-13T01:10:33.417Z,14.87
2022-12-13T01:11:39.316Z,16.25
2022-12-13T01:12:42.703Z,15.10
2022-12-13T01:13:49.626Z,15.15
2022-12-13T01:14:56.317Z,16.64
2022-12-13T01:16:04.729Z,16.71
2022-12-13T01:17:11.772Z,16.60
2022-12-13T01:18:18.537Z,15.54
2022-12-13T01:19:25.943Z,15.04
2022-12-13T01:20:29.187Z,14.29
2022-12-13T01:21:35.793Z,16.47
2022-12-13T01:22:41.857Z,16.83
2022-12-13T01:23:48.481Z,16.63
2022-12-13T01:24:55.284Z,16.84
2022-12-13T01:25:58.798Z,15.54
2022-12-13T01:27:04.821Z,17.12
2022-12-13T01:28:08.092Z,18.13
2022-12-13T01:29:17.018Z,17.13
2022-12-13T01:30:21.145Z,18.60
2022-12-13T01:31:28.241Z,17.27
2022-12-13T01:32:34.135Z,16.58
2022-12-13T01:33:39.320Z,14.94
2022-12-13T01:34:45.312Z,13.97
2022-12-13T01:35:49.845Z,14.32
2022-12-13T01:36:58.102Z,14.44
2022-12-13T01:38:02.338Z,14.55
2022-12-13T01:39:26.665Z,14.98
2022-12-13T01:40:32.981Z,15.83
2022-12-13T01:41:47.717Z,16.66
2022-12-13T01:42:51.023Z,15.01
2022-12-13T01:44:03.438Z,15.02
2022-12-13T01:45:27.369Z,15.53
2022-12-13T01:46:32.584Z,16.15
2022-12-13T01:47:48.886Z,16.39
2022-12-13T01:49:05.529Z,16.78
2022-12-13T01:50:35.588Z,18.00
2022-12-13T01:51:48.169Z,15.46
2022-12-13T01:53:00.213Z,16.00
2022-12-13T01:54:09.050Z,15.05
2022-12-13T01:55:23.217Z,14.20
2022-12-13T01:56:37.140Z,14.32
2022-12-13T01:57:50.076Z,14.15
2022-12-13T01:58:58.397Z,14.23
2022-12-13T02:00:05.083Z,13.79
2022-12-13T02:01:11.106Z,14.28
2022-12-13T02:02:19.295Z,14.87
2022-12-13T02:03:23.904Z,15.44
2022-12-13T02:04:44.242Z,14.58
2022-12-13T02:06:01.178Z,15.69
2022-12-13T02:07:07.808Z,16.47
2022-12-13T02:08:19.850Z,17.32
2022-12-13T02:09:24.306Z,17.79
2022-12-13T02:10:35.633Z,19.78
2022-12-13T02:11:43.855Z,20.84
2022-12-13T02:12:54.497Z,19.58
2022-12-13T02:13:57.982Z,20.15
2022-12-13T02:15:11.964Z,20.69
2022-12-13T02:16:44.638Z,19.93
2022-12-13T02:18:24.196Z,19.93
2022-12-13T02:20:22.520Z,19.58
2022-12-13T02:21:50.194Z,20.93
2022-12-13T02:23:40.032Z,20.53
2022-12-13T02:25:09.105Z,19.62
2022-12-13T02:27:01.228Z,19.73
2022-12-13T02:28:38.423Z,19.39
2022-12-13T02:30:30.748Z,19.66
2022-12-13T02:31:51.146Z,19.24
2022-12-13T02:33:32.813Z,20.44
2022-12-13T02:34:46.501Z,19.99
2022-12-13T02:36:05.909Z,19.42
2022-12-13T02:37:26.696Z,20.02
2022-12-13T02:38:47.849Z,21.53
2022-12-13T02:40:05.688Z,20.92
2022-12-13T02:41:23.816Z,20.80
2022-12-13T02:42:41.529Z,19.88
2022-12-13T02:44:01.251Z,20.12
2022-12-13T02:45:20.511Z,19.79
2022-12-13T02:46:38.934Z,20.50
2022-12-13T02:47:44.606Z,19.68
2022-12-13T02:48:58.077Z,21.04
2022-12-13T02:50:10.013Z,20.84
2022-12-13T02:51:20.733Z,21.08
2022-12-13T02:52:31.508Z,20.19
2022-12-13T02:53:41.495Z,20.27
2022-12-13T02:54:45.052Z,20.23
2022-12-13T02:55:51.683Z,20.18
2022-12-13T02:56:56.886Z,20.57
2022-12-13T02:58:02.820Z,19.88
2022-12-13T02:59:17.871Z,19.37
2022-12-13T03:00:37.907Z,19.32
2022-12-13T03:02:11.982Z,19.13
2022-12-13T03:03:38.796Z,20.37
2022-12-13T03:05:17.633Z,20.64
2022-12-13T03:06:47.676Z,20.11
2022-12-13T03:08:13.402Z,20.20
2022-12-13T03:09:43.170Z,19.74
2022-12-13T03:11:03.940Z,19.10
2022-12-13T03:12:41.692Z,18.82
2022-12-13T03:13:58.504Z,19.06
2022-12-13T03:15:18.707Z,18.30
2022-12-13T03:16:36.687Z,18.45
2022-12-13T03:17:55.089Z,18.24
2022-12-13T03:19:03.155Z,18.42
2022-12-13T03:20:23.312Z,18.47
2022-12-13T03:21:30.155Z,18.53
2022-12-13T03:22:35.224Z,17.89
2022-12-13T03:23:42.037Z,17.82
2022-12-13T03:24:45.614Z,18.49
2022-12-13T03:25:58.512Z,17.92
2022-12-13T03:27:02.153Z,17.75
2022-12-13T03:28:08.703Z,17.43
2022-12-13T03:29:12.045Z,16.70
2022-12-13T03:30:18.007Z,17.58
2022-12-13T03:31:25.770Z,17.49
2022-12-13T03:32:29.232Z,17.01
2022-12-13T03:33:38.982Z,16.82
2022-12-13T03:34:44.221Z,16.94
2022-12-13T03:35:53.074Z,16.50
2022-12-13T03:37:00.024Z,17.58
2022-12-13T03:38:05.845Z,16.61
2022-12-13T03:39:11.956Z,16.83
2022-12-13T03:40:15.581Z,18.24
2022-12-13T03:41:31.600Z,19.16
2022-12-13T03:42:35.975Z,17.44
2022-12-13T03:43:42.928Z,16.56
2022-12-13T03:44:46.165Z,16.95
2022-12-13T03:45:52.150Z,16.94
2022-12-13T03:46:57.987Z,16.53
2022-12-13T03:48:05.364Z,16.32
2022-12-13T03:49:17.421Z,16.77
2022-12-13T03:50:27.097Z,15.93
2022-12-13T03:51:33.331Z,15.63
2022-12-13T03:52:36.744Z,15.05
2022-12-13T03:53:43.565Z,14.81
2022-12-13T03:54:47.560Z,15.32
2022-12-13T03:55:53.850Z,16.28
2022-12-13T03:56:58.239Z,15.51
2022-12-13T03:58:07.865Z,15.63
2022-12-13T03:59:12.350Z,15.91
2022-12-13T04:00:19.587Z,15.79
2022-12-13T04:01:25.513Z,15.32
2022-12-13T04:02:31.198Z,16.38
2022-12-13T04:03:37.893Z,17.27
2022-12-13T04:04:44.675Z,18.12
2022-12-13T04:05:50.726Z,17.64
2022-12-13T04:06:54.092Z,16.42
2022-12-13T04:08:02.363Z,16.26
2022-12-13T04:09:05.921Z,15.99
2022-12-13T04:10:26.459Z,16.03
2022-12-13T04:11:45.100Z,16.32
2022-12-13T04:13:03.366Z,18.48
2022-12-13T04:14:06.695Z,18.17
2022-12-13T04:15:14.257Z,16.56
2022-12-13T04:16:18.285Z,17.45
2022-12-13T04:17:24.308Z,16.69
2022-12-13T04:18:27.660Z,17.34
2022-12-13T04:19:33.994Z,18.06
2022-12-13T04:20:40.722Z,18.25
2022-12-13T04:21:46.653Z,18.07
2022-12-13T04:22:50.103Z,18.54
2022-12-13T04:23:56.023Z,18.81
2022-12-13T04:25:05.523Z,18.80
2022-12-13T04:26:14.598Z,19.28
2022-12-13T04:27:17.932Z,17.75
2022-12-13T04:28:23.943Z,17.99
2022-12-13T04:29:34.451Z,16.35
2022-12-13T04:30:41.350Z,15.34
2022-12-13T04:31:45.545Z,15.56
2022-12-13T04:32:52.005Z,16.60
2022-12-13T04:33:55.251Z,17.00
2022-12-13T04:35:01.751Z,17.03
2022-12-13T04:36:11.589Z,16.41
2022-12-13T04:37:15.932Z,16.24
2022-12-13T04:38:23.179Z,16.49
2022-12-13T04:39:34.445Z,15.99
2022-12-13T04:40:38.093Z,15.86
2022-12-13T04:41:44.254Z,16.19
2022-12-13T04:42:48.486Z,14.75
2022-12-13T04:44:00.484Z,16.01
2022-12-13T04:45:04.384Z,16.29
2022-12-13T04:46:10.429Z,17.23
2022-12-13T04:47:13.664Z,17.23
2022-12-13T04:48:30.989Z,16.61
2022-12-13T04:49:35.392Z,16.33
2022-12-13T04:50:41.234Z,15.72
2022-12-13T04:51:47.586Z,16.01
2022-12-13T04:52:53.991Z,16.17
2022-12-13T04:54:23.526Z,16.56
2022-12-13T04:55:24.175Z,15.41
2022-12-13T04:56:27.592Z,15.22
2022-12-13T04:57:33.668Z,16.02
2022-12-13T04:58:37.137Z,16.52
2022-12-13T04:59:47.211Z,15.02
2022-12-13T05:00:53.199Z,13.89
2022-12-13T05:01:56.612Z,13.85
2022-12-13T05:03:02.559Z,14.28
2022-12-13T05:04:08.818Z,14.63
2022-12-13T05:05:13.380Z,14.75
2022-12-13T05:06:26.824Z,14.68
2022-12-13T05:07:36.443Z,13.85
2022-12-13T05:08:49.088Z,12.94
2022-12-13T05:09:52.452Z,13.22
2022-12-13T05:10:59.232Z,13.78
2022-12-13T05:12:02.531Z,14.62
2022-12-13T05:13:10.295Z,18.31
2022-12-13T05:14:13.618Z,16.54
2022-12-13T05:15:19.881Z,13.92
2022-12-13T05:16:24.683Z,14.10
2022-12-13T05:17:30.815Z,14.43
2022-12-13T05:18:36.658Z,13.30
2022-12-13T05:19:42.615Z,12.62
2022-12-13T05:20:48.584Z,12.79
2022-12-13T05:21:52.773Z,13.57
2022-12-13T05:23:02.220Z,13.90
2022-12-13T05:24:10.604Z,12.94
2022-12-13T05:25:16.797Z,13.58
2022-12-13T05:26:23.129Z,13.98
2022-12-13T05:27:29.998Z,14.40
2022-12-13T05:28:34.816Z,13.20
2022-12-13T05:29:41.863Z,13.20
2022-12-13T05:30:45.848Z,12.99
2022-12-13T05:31:51.856Z,13.48
2022-12-13T05:32:59.059Z,14.13
2022-12-13T05:34:02.507Z,14.54
2022-12-13T05:35:10.308Z,14.64
2022-12-13T05:36:16.187Z,15.22
2022-12-13T05:37:22.139Z,15.96
2022-12-13T05:38:30.061Z,16.57
2022-12-13T05:39:35.934Z,17.18
2022-12-13T05:40:39.259Z,16.76
2022-12-13T05:41:45.799Z,17.13
2022-12-13T05:42:51.848Z,17.09
2022-12-13T05:44:05.695Z,18.29
2022-12-13T05:45:13.735Z,17.41
2022-12-13T05:46:17.453Z,17.74
2022-12-13T05:47:23.373Z,17.37
2022-12-13T05:48:26.711Z,17.80
2022-12-13T05:49:33.651Z,19.57
2022-12-13T05:50:38.511Z,19.35
2022-12-13T05:51:44.788Z,19.75
2022-12-13T05:52:48.097Z,20.52
2022-12-13T05:53:56.632Z,20.61
2022-12-13T05:55:03.401Z,20.72
2022-12-13T05:56:10.200Z,20.44
2022-12-13T05:57:16.676Z,21.84
2022-12-13T05:58:23.266Z,22.79
2022-12-13T05:59:29.561Z,22.66
2022-12-13T06:00:33.734Z,23.55
2022-12-13T06:01:44.084Z,23.50
2022-12-13T06:02:47.577Z,26.12
2022-12-13T06:03:55.843Z,25.21
2022-12-13T06:05:03.187Z,24.59
2022-12-13T06:06:14.060Z,24.42
2022-12-13T06:07:17.585Z,21.93
2022-12-13T06:08:24.381Z,24.50
2022-12-13T06:09:39.990Z,24.93
2022-12-13T06:10:46.253Z,24.81
2022-12-13T06:12:01.104Z,25.42
2022-12-13T06:13:32.203Z,27.60
2022-12-13T06:14:33.957Z,27.14
2022-12-13T06:15:44.576Z,27.25
2022-12-13T06:16:50.813Z,25.31
2022-12-13T06:17:55.053Z,28.53
2022-12-13T06:19:04.331Z,28.94
2022-12-13T06:20:23.482Z,33.26
2022-12-13T06:21:40.759Z,33.56
2022-12-13T06:22:49.695Z,32.45
2022-12-13T06:23:56.405Z,33.30
2022-12-13T06:25:02.916Z,32.70
2022-12-13T06:26:11.213Z,36.39
2022-12-13T06:27:17.020Z,36.09
2022-12-13T06:28:23.467Z,36.28
2022-12-13T06:29:30.335Z,30.34
2022-12-13T06:30:33.752Z,33.58
2022-12-13T06:31:39.946Z,34.83
2022-12-13T06:32:45.986Z,31.23
2022-12-13T06:33:52.155Z,28.91
2022-12-13T06:34:58.914Z,30.21
2022-12-13T06:36:08.047Z,31.15
2022-12-13T06:37:17.303Z,28.72
2022-12-13T06:38:31.126Z,29.02
2022-12-13T06:39:38.544Z,29.67
2022-12-13T06:40:47.934Z,30.16
2022-12-13T06:41:54.736Z,30.88
2022-12-13T06:43:01.083Z,30.97
2022-12-13T06:44:05.419Z,29.95
2022-12-13T06:45:12.336Z,30.18
2022-12-13T06:46:19.270Z,32.42
2022-12-13T06:47:31.520Z,34.39
2022-12-13T06:48:40.752Z,29.30
2022-12-13T06:49:44.706Z,26.99
2022-12-13T06:50:51.463Z,27.61
2022-12-13T06:51:58.180Z,28.43
2022-12-13T06:53:04.250Z,29.51
2022-12-13T06:54:10.359Z,31.19
2022-12-13T06:55:24.107Z,32.72
2022-12-13T06:56:33.909Z,27.53
2022-12-13T06:57:37.979Z,30.09
2022-12-13T06:58:47.027Z,29.41
2022-12-13T06:59:53.431Z,28.59
2022-12-13T07:01:06.731Z,28.22
2022-12-13T07:02:25.529Z,28.47
2022-12-13T07:03:32.961Z,32.39
2022-12-13T07:04:38.840Z,29.97
2022-12-13T07:05:45.392Z,30.05
2022-12-13T07:06:51.462Z,26.60
2022-12-13T07:07:57.893Z,26.25
2022-12-13T07:09:04.695Z,25.17
2022-12-13T07:10:22.787Z,24.14
2022-12-13T07:11:34.977Z,22.03
2022-12-13T07:12:40.962Z,22.16
2022-12-13T07:13:48.222Z,23.56
2022-12-13T07:14:56.267Z,24.42
2022-12-13T07:16:02.274Z,25.63
2022-12-13T07:17:05.919Z,23.47
2022-12-13T07:18:12.120Z,23.46
2022-12-13T07:19:23.968Z,22.67
2022-12-13T07:20:31.273Z,21.31
2022-12-13T07:21:39.318Z,20.29
2022-12-13T07:22:49.188Z,21.47
2022-12-13T07:23:57.573Z,21.87
2022-12-13T07:25:00.924Z,21.17
2022-12-13T07:26:10.256Z,22.19
2022-12-13T07:27:16.211Z,21.84
2022-12-13T07:28:22.640Z,21.54
2022-12-13T07:29:26.040Z,22.57
2022-12-13T07:30:32.237Z,21.97
2022-12-13T07:31:39.770Z,22.29
2022-12-13T07:32:45.887Z,21.08
2022-12-13T07:33:51.865Z,20.85
2022-12-13T07:34:55.219Z,20.67
2022-12-13T07:36:04.923Z,20.82
2022-12-13T07:37:30.447Z,20.03
2022-12-13T07:38:37.291Z,20.42
2022-12-13T07:39:40.633Z,21.36
2022-12-13T07:40:46.511Z,22.33
2022-12-13T07:41:52.557Z,22.19
2022-12-13T07:42:59.386Z,21.83
2022-12-13T07:44:05.332Z,21.69
2022-12-13T07:45:12.713Z,22.90
2022-12-13T07:46:23.475Z,29.91
2022-12-13T07:47:39.079Z,31.55
2022-12-13T07:48:47.129Z,31.63
2022-12-13T07:49:53.100Z,32.47
2022-12-13T07:51:07.143Z,34.99
2022-12-13T07:52:14.587Z,38.37
2022-12-13T07:53:21.054Z,34.83
2022-12-13T07:54:28.162Z,34.65
2022-12-13T07:55:34.282Z,42.46
2022-12-13T07:56:41.263Z,41.98
2022-12-13T07:57:47.123Z,45.03
2022-12-13T07:58:55.696Z,47.19
2022-12-13T08:00:02.635Z,47.13
2022-12-13T08:01:18.776Z,42.36
2022-12-13T08:02:24.795Z,38.79
2022-12-13T08:03:31.224Z,36.46
2022-12-13T08:04:38.100Z,36.36
2022-12-13T08:05:45.655Z,39.68
2022-12-13T08:06:51.966Z,45.75
2022-12-13T08:07:58.022Z,50.31
2022-12-13T08:09:04.049Z,51.04
2022-12-13T08:10:10.799Z,54.04
2022-12-13T08:11:19.224Z,50.01
2022-12-13T08:12:25.353Z,49.10
2022-12-13T08:13:31.366Z,45.10
2022-12-13T08:14:39.874Z,51.86
2022-12-13T08:15:45.945Z,50.11
2022-12-13T08:16:52.855Z,52.27
2022-12-13T08:18:01.113Z,46.51
2022-12-13T08:19:10.365Z,58.36
2022-12-13T08:20:13.729Z,61.60
2022-12-13T08:21:53.263Z,56.86
2022-12-13T08:23:02.115Z,49.04
2022-12-13T08:24:15.308Z,59.15
2022-12-13T08:25:21.821Z,71.71
2022-12-13T08:26:25.270Z,84.59
2022-12-13T08:27:31.464Z,81.41
2022-12-13T08:28:38.892Z,99.26
2022-12-13T08:29:47.664Z,79.54
2022-12-13T08:30:55.556Z,50.96
2022-12-13T08:32:01.806Z,50.25
2022-12-13T08:33:08.056Z,55.34
2022-12-13T08:34:14.804Z,60.76
2022-12-13T08:35:21.077Z,55.07
2022-12-13T08:36:27.570Z,57.18
2022-12-13T08:37:30.865Z,57.92
2022-12-13T08:38:36.844Z,64.28
2022-12-13T08:39:44.770Z,61.58
2022-12-13T08:40:51.664Z,50.88
2022-12-13T08:41:57.722Z,48.51
2022-12-13T08:43:03.833Z,50.68
2022-12-13T08:44:10.006Z,46.72
2022-12-13T08:45:19.561Z,47.10
2022-12-13T08:46:25.688Z,48.84
2022-12-13T08:47:32.733Z,47.58
2022-12-13T08:48:44.895Z,45.91
2022-12-13T08:49:48.558Z,53.16
2022-12-13T08:50:55.456Z,55.80
2022-12-13T08:52:02.923Z,53.00
2022-12-13T08:53:09.255Z,53.52
2022-12-13T08:54:31.111Z,44.25
2022-12-13T08:55:37.845Z,48.71
2022-12-13T08:56:45.064Z,52.93
2022-12-13T08:57:51.147Z,58.85
2022-12-13T08:58:58.224Z,60.13
2022-12-13T09:00:04.180Z,88.88
2022-12-13T09:01:13.746Z,99.86
2022-12-13T09:02:20.772Z,96.47
2022-12-13T09:03:26.859Z,94.88
2022-12-13T09:04:32.993Z,96.06
2022-12-13T09:05:38.953Z,70.95
2022-12-13T09:06:46.234Z,56.83
2022-12-13T09:07:58.441Z,56.65
2022-12-13T09:09:08.187Z,56.12
2022-12-13T09:10:27.053Z,51.55
2022-12-13T09:11:39.883Z,60.13
2022-12-13T09:12:46.823Z,60.15
2022-12-13T09:13:53.667Z,55.43
2022-12-13T09:15:23.017Z,53.98
2022-12-13T09:16:35.652Z,54.98
2022-12-13T09:17:42.242Z,53.21
2022-12-13T09:18:55.102Z,50.80
2022-12-13T09:20:02.892Z,53.59
2022-12-13T09:21:22.476Z,51.29
2022-12-13T09:22:38.156Z,48.54
2022-12-13T09:23:53.141Z,50.47
2022-12-13T09:25:15.069Z,52.80
2022-12-13T09:26:38.382Z,51.34
2022-12-13T09:27:44.617Z,53.08
2022-12-13T09:28:51.382Z,53.56
2022-12-13T09:29:57.679Z,50.88
2022-12-13T09:31:04.707Z,48.54
2022-12-13T09:32:13.432Z,50.09
2022-12-13T09:33:30.191Z,50.21
2022-12-13T09:34:37.052Z,49.52
2022-12-13T09:35:44.975Z,50.04
2022-12-13T09:36:51.890Z,51.73
2022-12-13T09:37:59.186Z,49.84
2022-12-13T09:39:05.343Z,48.03
2022-12-13T09:40:25.374Z,47.11
2022-12-13T09:41:41.370Z,46.56
2022-12-13T09:43:12.374Z,44.29
2022-12-13T09:44:32.294Z,43.45
2022-12-13T09:45:50.909Z,44.25
2022-12-13T09:47:02.668Z,42.28
2022-12-13T09:48:14.088Z,40.86
2022-12-13T09:49:37.470Z,47.41
2022-12-13T09:50:51.564Z,42.20
2022-12-13T09:52:21.325Z,36.89
2022-12-13T09:53:33.910Z,37.98
2022-12-13T09:54:48.255Z,43.23
2022-12-13T09:56:09.936Z,41.78
2022-12-13T09:57:32.061Z,44.31
2022-12-13T09:58:40.634Z,46.03
2022-12-13T09:59:47.043Z,53.86
2022-12-13T10:00:58.081Z,68.07
2022-12-13T10:02:20.738Z,81.82
2022-12-13T10:03:31.009Z,102.93
2022-12-13T10:04:37.052Z,80.68
2022-12-13T10:05:47.332Z,65.05
2022-12-13T10:06:57.018Z,70.65
2022-12-13T10:08:12.306Z,59.96
2022-12-13T10:09:19.050Z,44.57
2022-12-13T10:10:26.106Z,43.07
2022-12-13T10:11:33.560Z,46.43
2022-12-13T10:12:40.573Z,42.48
2022-12-13T10:13:54.915Z,42.36
2022-12-13T10:15:06.374Z,43.86
2022-12-13T10:16:36.312Z,41.46
2022-12-13T10:17:51.538Z,41.19
2022-12-13T10:19:28.498Z,39.40
2022-12-13T10:20:38.227Z,43.86
2022-12-13T10:21:48.856Z,43.99
2022-12-13T10:23:31.415Z,38.42
2022-12-13T10:24:32.942Z,42.11
2022-12-13T10:25:54.981Z,44.15
2022-12-13T10:27:21.651Z,57.46
2022-12-13T10:28:34.007Z,55.93
2022-12-13T10:30:05.950Z,52.65
2022-12-13T10:31:18.391Z,39.77
2022-12-13T10:32:22.778Z,52.30
2022-12-13T10:33:34.968Z,53.79
2022-12-13T10:34:44.698Z,57.56
2022-12-13T10:36:11.263Z,52.93
2022-12-13T10:37:33.441Z,49.60
2022-12-13T10:38:43.944Z,51.93
2022-12-13T10:39:48.102Z,38.28
2022-12-13T10:40:54.258Z,40.10
2022-12-13T10:42:09.249Z,35.26
2022-12-13T10:43:18.918Z,35.29
2022-12-13T10:44:27.403Z,36.51
2022-12-13T10:45:31.679Z,45.17
2022-12-13T10:46:40.720Z,40.59
2022-12-13T10:47:48.763Z,46.08
2022-12-13T10:48:56.142Z,45.87
2022-12-13T10:50:06.737Z,46.44
2022-12-13T10:51:18.021Z,30.78
2022-12-13T10:52:32.061Z,29.31
2022-12-13T10:53:47.861Z,34.77
2022-12-13T10:54:52.854Z,32.22
2022-12-13T10:56:09.400Z,40.84
2022-12-13T10:57:13.678Z,48.89
2022-12-13T10:58:23.642Z,38.13
2022-12-13T10:59:36.890Z,25.97
2022-12-13T11:00:47.809Z,24.73
2022-12-13T11:01:51.893Z,28.48
2022-12-13T11:02:58.895Z,29.38
2022-12-13T11:04:08.427Z,30.38
2022-12-13T11:05:34.149Z,32.56
2022-12-13T11:06:47.256Z,28.75
2022-12-13T11:07:55.477Z,27.98
2022-12-13T11:09:23.182Z,27.05
2022-12-13T11:10:32.591Z,25.70
2022-12-13T11:11:38.632Z,22.17
2022-12-13T11:12:46.054Z,27.99
2022-12-13T11:14:01.791Z,32.90
2022-12-13T11:15:23.108Z,33.14
2022-12-13T11:16:35.849Z,33.13
2022-12-13T11:17:54.665Z,35.40
2022-12-13T11:19:05.545Z,39.55
2022-12-13T11:20:24.490Z,39.48
2022-12-13T11:21:39.433Z,36.03
2022-12-13T11:22:46.329Z,31.51
2022-12-13T11:23:52.403Z,39.02
2022-12-13T11:25:11.164Z,47.20
2022-12-13T11:26:25.916Z,42.51
2022-12-13T11:28:01.242Z,42.53
2022-12-13T11:29:44.937Z,38.11
2022-12-13T11:31:12.439Z,40.94
2022-12-13T11:32:44.453Z,36.88
2022-12-13T11:34:08.435Z,36.02
2022-12-13T11:35:28.605Z,44.86
2022-12-13T11:36:52.288Z,46.84
2022-12-13T11:38:19.745Z,46.78
2022-12-13T11:39:36.242Z,46.07
2022-12-13T11:40:52.413Z,55.22
2022-12-13T11:42:14.006Z,50.72
2022-12-13T11:43:40.569Z,39.75
2022-12-13T11:45:03.116Z,42.17
2022-12-13T11:46:22.940Z,50.85
2022-12-13T11:47:40.753Z,44.59
2022-12-13T11:48:59.536Z,50.79
2022-12-13T11:50:33.087Z,47.82
2022-12-13T11:51:51.972Z,54.38
2022-12-13T11:53:20.111Z,51.27
2022-12-13T11:54:41.263Z,39.63
2022-12-13T11:55:58.361Z,44.11
2022-12-13T11:57:21.712Z,36.97
2022-12-13T12:00:33.858Z,42.02
2022-12-13T12:01:53.069Z,38.71
2022-12-13T12:03:16.321Z,37.40
2022-12-13T12:04:37.622Z,38.10
2022-12-13T12:05:55.938Z,47.83
2022-12-13T12:07:32.539Z,42.07
2022-12-13T12:08:49.616Z,37.38
2022-12-13T12:10:12.678Z,38.89
2022-12-13T12:11:34.312Z,38.44
2022-12-13T12:12:45.972Z,40.69
2022-12-13T12:14:02.115Z,41.57
2022-12-13T12:15:18.477Z,40.50
2022-12-13T12:16:46.487Z,41.76
2022-12-13T12:17:52.771Z,40.63
2022-12-13T12:19:01.414Z,43.98
2022-12-13T12:20:23.272Z,38.43
2022-12-13T12:22:12.691Z,39.03
2022-12-13T12:23:31.586Z,36.57
2022-12-13T12:25:03.545Z,41.00
2022-12-13T12:26:17.812Z,34.78
2022-12-13T12:27:43.713Z,40.53
2022-12-13T12:29:24.052Z,37.91
2022-12-13T12:30:51.841Z,36.30
2022-12-13T12:32:13.965Z,34.57
2022-12-13T12:33:37.966Z,34.02
2022-12-13T12:35:04.624Z,31.67
2022-12-13T12:36:43.852Z,33.38
2022-12-13T12:38:12.967Z,37.35
2022-12-13T12:39:54.288Z,29.94
2022-12-13T12:41:27.532Z,36.15
2022-12-13T12:43:15.310Z,37.81
2022-12-13T12:44:47.872Z,33.58
2022-12-13T12:46:20.381Z,31.40
2022-12-13T12:48:41.310Z,28.30
2022-12-13T12:49:55.167Z,28.65
2022-12-13T12:51:13.962Z,29.53
2022-12-13T12:52:34.997Z,27.74
2022-12-13T12:53:54.149Z,23.66
2022-12-13T12:55:21.838Z,25.38
2022-12-13T12:56:48.254Z,27.36
2022-12-13T12:58:18.637Z,22.60
2022-12-13T12:59:42.438Z,22.59
2022-12-13T13:01:11.271Z,21.09
2022-12-13T13:02:29.591Z,20.35
2022-12-13T13:03:44.658Z,19.83
2022-12-13T13:05:00.987Z,20.24
2022-12-13T13:06:18.984Z,23.75
2022-12-13T13:07:39.996Z,32.55
2022-12-13T13:08:55.616Z,36.39
2022-12-13T13:10:25.923Z,30.15
2022-12-13T13:11:43.027Z,34.48
2022-12-13T13:12:50.512Z,36.52
2022-12-13T13:14:28.833Z,32.81
2022-12-13T13:15:59.535Z,35.97
2022-12-13T13:17:50.529Z,37.69
2022-12-13T13:18:56.163Z,37.81
2022-12-13T13:20:23.587Z,30.76
2022-12-13T13:21:53.833Z,30.79
2022-12-13T13:23:39.868Z,33.00
2022-12-13T13:24:31.658Z,39.81
2022-12-13T13:26:07.720Z,35.41
2022-12-13T13:27:32.751Z,34.32
2022-12-13T13:28:40.652Z,31.52
2022-12-13T13:29:47.817Z,33.49
2022-12-13T13:31:10.450Z,36.61
2022-12-13T13:32:34.702Z,32.13
2022-12-13T13:33:53.520Z,40.15
2022-12-13T13:35:53.897Z,36.82
2022-12-13T13:37:02.438Z,38.17
2022-12-13T13:39:01.644Z,37.64
2022-12-13T13:40:37.399Z,36.58
2022-12-13T13:42:20.266Z,46.00
2022-12-13T13:43:34.652Z,63.40
2022-12-13T13:45:27.317Z,50.27
2022-12-13T13:46:31.066Z,63.02
2022-12-13T13:47:46.648Z,59.28
2022-12-13T13:49:12.155Z,61.29
2022-12-13T13:51:28.060Z,49.80
2022-12-13T13:52:59.464Z,52.95
2022-12-13T13:55:20.501Z,56.11
2022-12-13T13:56:50.192Z,55.18
2022-12-13T13:58:40.593Z,59.04
2022-12-13T14:00:23.356Z,49.44
2022-12-13T14:02:13.491Z,53.14
2022-12-13T14:04:24.672Z,51.24
2022-12-13T14:06:26.547Z,54.62
2022-12-13T14:08:20.573Z,53.83
2022-12-13T14:10:17.887Z,52.62
2022-12-13T14:12:25.732Z,56.28
2022-12-13T14:14:38.683Z,55.85
2022-12-13T14:16:35.913Z,49.20
2022-12-13T14:18:32.897Z,55.64
2022-12-13T14:20:31.919Z,55.54
2022-12-13T14:22:05.723Z,55.02
2022-12-13T14:23:32.238Z,55.43
2022-12-13T14:24:56.981Z,56.66
2022-12-13T14:26:43.894Z,60.92
2022-12-13T14:28:04.433Z,64.76
2022-12-13T14:29:24.174Z,63.13
2022-12-13T14:30:31.568Z,65.91
2022-12-13T14:31:44.744Z,69.22
2022-12-13T14:32:53.479Z,78.60
2022-12-13T14:34:03.287Z,75.85
2022-12-13T14:35:25.587Z,77.53
2022-12-13T14:36:36.711Z,82.44
2022-12-13T14:37:42.873Z,84.10
2022-12-13T14:38:49.002Z,90.67
2022-12-13T14:39:55.325Z,85.15
2022-12-13T14:41:06.304Z,89.86
2022-12-13T14:42:29.675Z,96.98
2022-12-13T14:43:38.822Z,92.43
2022-12-13T14:44:47.522Z,97.77
2022-12-13T14:45:59.819Z,100.36
2022-12-13T14:47:11.477Z,101.27
2022-12-13T14:48:28.860Z,94.38
2022-12-13T14:49:41.923Z,104.01
2022-12-13T14:50:56.725Z,113.71
2022-12-13T14:52:11.251Z,110.18
2022-12-13T14:53:30.717Z,113.73
2022-12-13T14:54:50.341Z,120.10
2022-12-13T14:56:27.534Z,113.36
2022-12-13T14:57:38.283Z,127.30
2022-12-13T14:58:58.009Z,135.69
2022-12-13T15:00:27.614Z,121.62
2022-12-13T15:01:37.274Z,113.22
2022-12-13T15:02:55.834Z,103.22
2022-12-13T15:04:23.102Z,97.84
2022-12-13T15:05:33.361Z,100.48
2022-12-13T15:06:36.916Z,95.36
2022-12-13T15:07:46.268Z,95.14
2022-12-13T15:08:52.649Z,92.10
2022-12-13T15:10:04.688Z,97.96
2022-12-13T15:11:13.459Z,100.63
2022-12-13T15:12:25.148Z,92.80
2022-12-13T15:13:41.095Z,91.33
2022-12-13T15:14:56.595Z,96.16
2022-12-13T15:16:12.684Z,99.04
2022-12-13T15:17:33.807Z,112.90
2022-12-13T15:18:50.510Z,117.46
2022-12-13T15:20:01.005Z,115.80
2022-12-13T15:21:28.710Z,108.90
2022-12-13T15:22:38.747Z,94.84
2022-12-13T15:23:49.699Z,93.58
2022-12-13T15:25:18.388Z,91.70
2022-12-13T15:26:30.265Z,93.57
2022-12-13T15:27:37.005Z,99.45
2022-12-13T15:28:44.785Z,96.90
2022-12-13T15:29:54.521Z,93.06
2022-12-13T15:31:07.355Z,99.52
2022-12-13T15:32:19.508Z,105.21
2022-12-13T15:33:34.395Z,112.43
2022-12-13T15:34:43.487Z,115.69
2022-12-13T15:35:53.395Z,111.47
2022-12-13T15:37:01.125Z,101.68
2022-12-13T15:38:08.543Z,97.39
2022-12-13T15:39:18.514Z,104.78
2022-12-13T15:40:26.265Z,99.31
2022-12-13T15:41:37.168Z,93.43
2022-12-13T15:42:50.336Z,100.49
2022-12-13T15:44:04.221Z,101.54
2022-12-13T15:45:27.375Z,98.00
2022-12-13T15:46:40.906Z,96.04